Terminal Aerodrome Forecast
Issued by NWS

Home | Current Version | Previous Version | Text Only | Print | Product List | Glossary On
Versions: 1 2 3 4 5 6 7 8 9 10 11 12 13 14 15 16 17 18 19 20 21 22 23
172
FTUS46 KLOX 051736
TAFLGB
TAF
KLGB 051736Z 0518/0618 22006KT P6SM VCSH SCT025 OVC050
     FM052300 20008KT P6SM -SHRA VCTS SCT025 BKN045CB
     FM061100 13005KT P6SM -SHRA VCTS SCT012 BKN025CB=

USA.gov is the U.S. government's official web portal to all federal, state and local government web resources and services.